Aérodrome :
LOGIN :

S'inscrire | Disclaimer

   EN    FR    IT 

 










Légende :    VFR   VFR Marginal   IFR   IFR Intensif   IFR Très Intensif
Visi : 
Plafond : 
>= 8 km
>= 3000ft
5 à 8 km
1000 à 3000 ft
1500m à 5 km
500 à 1000 ft
800 à 1500m
200 à 500 ft
< 800m
< 200 ft
Symboles :   Orages  Brouillard  Fortes neiges  Fortes précipitations  Vent > 20 kt
SIGMETs :   Divers  Orages  Givrage  Turbulence  Onde Orograph.  Cendres Volcan.







- Altitude de l'aérodrome : 74 ft
- Code IATA : NDZ


ETMN - Cuxhaven Nordholz Sea AB

DERNIER METAR :
  • 161420Z 26018KT 9999 -SHRA FEW008 SCT013CB BKN035 02/01 Q0986 RESHSN BLU BLU TEMPO GRN

METARs EXPIRÉS :
  • 161320Z 25016KT 9000 SCT008 SCT013CB BKN030 03/01 Q0986 RESHSN BLU BLU TEMPO GRN
  • 161301Z 25011KT 5000 -SHRA SCT008 SCT013CB BKN030 03/02 Q0986 RESHSN WHT BLU TEMPO GRN
  • 161242Z 27011KT 8000 -SHRA SCT005 SCT013CB BKN030 01/01 Q0986 RESHSN BLU BLU TEMPO GRN
  • 161220Z 25017G29KT 2500 SHRASN SCT005 BKN012CB 01/M00 Q0986 YLO BLU TEMPO YLO

TAF TAF ETMN
Valide du 16 à 15h jusqu'au 17 à 00h UTC


161416Z 1615/1624 24015KT 9999 NSW SCT015 BKN035
TEMPO 1615/1624 25018G28KT 4000 SHRASN BKN010 BKN015CB
PROB30 1615/1624 25020G30KT 3500 TSGS SCT005 BKN010CB
Pas de NOTAMs connus pour ce terrain.



MET'MAP, la Météo Aéronautique d'un coup d'oeil ! - Copyright ORBIFLY Décembre 2007 - Disclaimer

ORBIFLY MET'MAP TEAM :

Programmation & Développement : Alexandra Zaïnal
Conception & Développement : Baudouin d'Aumeries
Co-Programmation & Développement : Marc-Olivier Méhu
Soutien technique & logistique : Manuel Goepfert

Contact : metmap@orbifly.com




SOURCES & CREDITS :

   NOAA